Santa Rita — DIOY2 — position and weather

sailwx.info

Track history (hours):
 
Tides and Currents Weather Stations Pressure Air Temp Water Temp Dewpoint Dewpoint Depression Visibility Wind Speed Wind Dir Waves Ship Positions

Santa Rita

Last reported at 2014-Sep-20 21:00 UTC. Time now 2014-Sep-22 12:15 UTC.
Position N 27°00' E 122°12'.

Length 300 m; draft 10.6 m.

Type: Cargo ship. MMSI: 218670000.

Wind from 110 at 15 knots

Waves 1.5 meters (5 feet), 5 second period

Barometer 1002.8 mb
Air temperature 25.5 ° C
Visibility: greater than 2.2 NM
Dewpoint 24.6 ° C
Water temperature 27.0 ° C

Date/timePositionNaut miles runAvg speedWind from/ knotsBaromVisibWave heightAir tempDewpointWater temp
2014-Sep-20 21:00N 27°00' E 122°12'21910.2 110 / 151002.8 2.2 1.525.524.627.0
2014-Sep-19 23:33N 24°31' E 119°15'4418.7
2014-Sep-19 21:11N 24°03' E 118°37'1219.0
2014-Sep-19 20:33N 23°55' E 118°27'2219.5
2014-Sep-19 19:24N 23°42' E 118°07'1719.6
2014-Sep-19 18:32N 23°31' E 117°53'2416.4
2014-Sep-19 17:05N 23°14' E 117°35'18816.3
2014-Sep-19 05:33N 22°34' E 114°16'0 0.0
2014-Sep-19 04:25N 22°34' E 114°16'0 0.0
2014-Sep-19 03:13N 22°34' E 114°16'0 0.0
2014-Sep-19 02:31N 22°34' E 114°16'0 0.0
2014-Sep-19 01:19N 22°34' E 114°16'0 0.0
2014-Sep-19 00:31N 22°34' E 114°16'0 0.0
2014-Sep-18 23:19N 22°34' E 114°16'0 0.0
2014-Sep-18 22:31N 22°34' E 114°16'0 0.0
2014-Sep-18 21:19N 22°34' E 114°16'0 0.0
2014-Sep-18 20:31N 22°34' E 114°16'0 0.0
2014-Sep-18 19:31N 22°34' E 114°16'0 0.0
2014-Sep-18 18:31N 22°34' E 114°16'25 1.2
2014-Sep-17 20:33N 22°09' E 114°12'1111.1
2014-Sep-17 19:31N 22°19' E 114°06'2 0.1
2014-Sep-16 23:25N 22°20' E 114°07'160 9.8
2014-Sep-16 07:06N 22°54' E 116°56'713.2
2014-Sep-16 06:33N 22°58' E 117°03'4613.1
2014-Sep-16 03:03N 23°25' E 117°43'812.1
2014-Sep-16 02:23N 23°31' E 117°50'1112.4
2014-Sep-16 01:30N 23°39' E 117°57'1212.2
2014-Sep-16 00:33N 23°47' E 118°07'1313.3
2014-Sep-15 23:33N 23°58' E 118°14'1312.8
2014-Sep-15 22:33N 24°10' E 118°20'1313.0
2014-Sep-15 21:33N 24°20' E 118°11'1110.8
2014-Sep-15 20:33N 24°28' E 118°03'3 2.9
2014-Sep-15 19:34N 24°31' E 118°05'0 0.0
2014-Sep-15 18:33N 24°31' E 118°05'0 0.0
2014-Sep-15 17:25N 24°31' E 118°05'0 0.0
2014-Sep-15 16:25N 24°31' E 118°05'0 0.0
2014-Sep-15 15:31N 24°31' E 118°05'0 0.0
2014-Sep-15 14:31N 24°31' E 118°05'0 0.0
2014-Sep-15 13:31N 24°31' E 118°05'0 0.0
2014-Sep-15 12:28N 24°31' E 118°05'0 0.0
2014-Sep-15 11:31N 24°31' E 118°05'0 0.0
2014-Sep-15 10:31N 24°31' E 118°05'0 0.0
2014-Sep-15 09:33N 24°31' E 118°05'4 4.3
2014-Sep-15 08:33N 24°27' E 118°03'9 9.0
2014-Sep-15 07:33N 24°21' E 118°10'1111.2
2014-Sep-15 06:33N 24°12' E 118°18'1111.2
2014-Sep-15 05:33N 24°15' E 118°30'1313.1
2014-Sep-15 04:33N 24°21' E 118°43'2613.0
2014-Sep-15 02:33N 24°28' E 119°10'10712.5
2014-Sep-14 18:00N 25°42' E 120°36'25412.4 040 / 181006.710.8 2.029.125.327.0
2014-Sep-13 21:33N 29°34' E 122°35'1414.4
2014-Sep-13 20:33N 29°43' E 122°22'1111.3
2014-Sep-13 19:33N 29°50' E 122°12'1110.9
2014-Sep-13 18:33N 29°46' E 122°01'0 0.4
2014-Sep-13 17:33N 29°46' E 122°00'0 0.0
2014-Sep-13 05:29N 29°46' E 122°00'0 0.2
2014-Sep-13 03:33N 29°46' E 122°01'9 9.5
2014-Sep-13 02:33N 29°51' E 122°10'1010.2
2014-Sep-13 01:33N 29°45' E 122°20'9 8.8
2014-Sep-13 00:33N 29°42' E 122°30'9 8.3
2014-Sep-12 23:29N 29°41' E 122°40'7 7.9
2014-Sep-12 22:32N 29°41' E 122°48'9 9.0
2014-Sep-12 21:33N 29°50' E 122°50'8 7.5
2014-Sep-12 20:33N 29°55' E 122°56'8 6.7
2014-Sep-12 19:21N 30°02' E 122°59'12 6.6
2014-Sep-12 17:32N 30°15' E 122°58'7 7.2
2014-Sep-12 16:33N 30°20' E 122°53'6 5.8
2014-Sep-12 15:32N 30°25' E 122°49'5 5.4
2014-Sep-12 14:33N 30°28' E 122°45'6 5.5
2014-Sep-12 13:33N 30°29' E 122°38'6 6.6
2014-Sep-12 12:33N 30°30' E 122°31'9 8.7
2014-Sep-12 11:32N 30°32' E 122°21'1212.4
2014-Sep-12 10:34N 30°35' E 122°07'3 3.4
2014-Sep-12 09:32N 30°37' E 122°04'0 0.0
2014-Sep-12 01:18N 30°37' E 122°04'0 0.0
2014-Sep-11 18:04N 30°37' E 122°04'0 0.5
2014-Sep-11 17:33N 30°37' E 122°04'1010.4
2014-Sep-11 16:33N 30°34' E 122°15'6 5.9
2014-Sep-11 15:33N 30°33' E 122°22'1212.0
2014-Sep-11 14:33N 30°34' E 122°36'1515.2
2014-Sep-11 13:33N 30°35' E 122°54'1414.1
2014-Sep-11 12:33N 30°35' E 123°10'1514.3
2014-Sep-11 11:32N 30°41' E 123°26'1515.0
2014-Sep-11 10:33N 30°47' E 123°41'1616.1
2014-Sep-11 09:33N 30°57' E 123°56'1715.5
2014-Sep-11 08:27N 31°07' E 124°12'  
Track history (hours):
 
Tides and Currents Weather Stations Pressure Air Temp Water Temp Dewpoint Dewpoint Depression Visibility Wind Speed Wind Dir Waves Ship Positions

Santa Rita

Last reported at 2014-Sep-20 21:00 UTC. Time now 2014-Sep-22 12:15 UTC.
Position N 27°00' E 122°12'.

Length 300 m; draft 10.6 m.

Type: Cargo ship. MMSI: 218670000.

Wind from 110 at 15 knots

Waves 1.5 meters (5 feet), 5 second period

Barometer 1002.8 mb
Air temperature 25.5 ° C
Visibility: greater than 2.2 NM
Dewpoint 24.6 ° C
Water temperature 27.0 ° C

Date/timePositionNaut miles runAvg speedWind from/ knotsBaromVisibWave heightAir tempDewpointWater temp
2014-Sep-20 21:00N 27°00' E 122°12'21910.2 110 / 151002.8 2.2 1.525.524.627.0
2014-Sep-19 23:33N 24°31' E 119°15'4418.7
2014-Sep-19 21:11N 24°03' E 118°37'1219.0
2014-Sep-19 20:33N 23°55' E 118°27'2219.5
2014-Sep-19 19:24N 23°42' E 118°07'1719.6
2014-Sep-19 18:32N 23°31' E 117°53'2416.4
2014-Sep-19 17:05N 23°14' E 117°35'18816.3
2014-Sep-19 05:33N 22°34' E 114°16'0 0.0
2014-Sep-19 04:25N 22°34' E 114°16'0 0.0
2014-Sep-19 03:13N 22°34' E 114°16'0 0.0
2014-Sep-19 02:31N 22°34' E 114°16'0 0.0
2014-Sep-19 01:19N 22°34' E 114°16'0 0.0
2014-Sep-19 00:31N 22°34' E 114°16'0 0.0
2014-Sep-18 23:19N 22°34' E 114°16'0 0.0
2014-Sep-18 22:31N 22°34' E 114°16'0 0.0
2014-Sep-18 21:19N 22°34' E 114°16'0 0.0
2014-Sep-18 20:31N 22°34' E 114°16'0 0.0
2014-Sep-18 19:31N 22°34' E 114°16'0 0.0
2014-Sep-18 18:31N 22°34' E 114°16'25 1.2
2014-Sep-17 20:33N 22°09' E 114°12'1111.1
2014-Sep-17 19:31N 22°19' E 114°06'2 0.1
2014-Sep-16 23:25N 22°20' E 114°07'160 9.8
2014-Sep-16 07:06N 22°54' E 116°56'713.2
2014-Sep-16 06:33N 22°58' E 117°03'4613.1
2014-Sep-16 03:03N 23°25' E 117°43'812.1
2014-Sep-16 02:23N 23°31' E 117°50'1112.4
2014-Sep-16 01:30N 23°39' E 117°57'1212.2
2014-Sep-16 00:33N 23°47' E 118°07'1313.3
2014-Sep-15 23:33N 23°58' E 118°14'1312.8
2014-Sep-15 22:33N 24°10' E 118°20'1313.0
2014-Sep-15 21:33N 24°20' E 118°11'1110.8
2014-Sep-15 20:33N 24°28' E 118°03'3 2.9
2014-Sep-15 19:34N 24°31' E 118°05'0 0.0
2014-Sep-15 18:33N 24°31' E 118°05'0 0.0
2014-Sep-15 17:25N 24°31' E 118°05'0 0.0
2014-Sep-15 16:25N 24°31' E 118°05'0 0.0
2014-Sep-15 15:31N 24°31' E 118°05'0 0.0
2014-Sep-15 14:31N 24°31' E 118°05'0 0.0
2014-Sep-15 13:31N 24°31' E 118°05'0 0.0
2014-Sep-15 12:28N 24°31' E 118°05'0 0.0
2014-Sep-15 11:31N 24°31' E 118°05'0 0.0
2014-Sep-15 10:31N 24°31' E 118°05'0 0.0
2014-Sep-15 09:33N 24°31' E 118°05'4 4.3
2014-Sep-15 08:33N 24°27' E 118°03'9 9.0
2014-Sep-15 07:33N 24°21' E 118°10'1111.2
2014-Sep-15 06:33N 24°12' E 118°18'1111.2
2014-Sep-15 05:33N 24°15' E 118°30'1313.1
2014-Sep-15 04:33N 24°21' E 118°43'2613.0
2014-Sep-15 02:33N 24°28' E 119°10'10712.5
2014-Sep-14 18:00N 25°42' E 120°36'25412.4 040 / 181006.710.8 2.029.125.327.0
2014-Sep-13 21:33N 29°34' E 122°35'1414.4
2014-Sep-13 20:33N 29°43' E 122°22'1111.3
2014-Sep-13 19:33N 29°50' E 122°12'1110.9
2014-Sep-13 18:33N 29°46' E 122°01'0 0.4
2014-Sep-13 17:33N 29°46' E 122°00'0 0.0
2014-Sep-13 05:29N 29°46' E 122°00'0 0.2
2014-Sep-13 03:33N 29°46' E 122°01'9 9.5
2014-Sep-13 02:33N 29°51' E 122°10'1010.2
2014-Sep-13 01:33N 29°45' E 122°20'9 8.8
2014-Sep-13 00:33N 29°42' E 122°30'9 8.3
2014-Sep-12 23:29N 29°41' E 122°40'7 7.9
2014-Sep-12 22:32N 29°41' E 122°48'9 9.0
2014-Sep-12 21:33N 29°50' E 122°50'8 7.5
2014-Sep-12 20:33N 29°55' E 122°56'8 6.7
2014-Sep-12 19:21N 30°02' E 122°59'12 6.6
2014-Sep-12 17:32N 30°15' E 122°58'7 7.2
2014-Sep-12 16:33N 30°20' E 122°53'6 5.8
2014-Sep-12 15:32N 30°25' E 122°49'5 5.4
2014-Sep-12 14:33N 30°28' E 122°45'6 5.5
2014-Sep-12 13:33N 30°29' E 122°38'6 6.6
2014-Sep-12 12:33N 30°30' E 122°31'9 8.7
2014-Sep-12 11:32N 30°32' E 122°21'1212.4
2014-Sep-12 10:34N 30°35' E 122°07'3 3.4
2014-Sep-12 09:32N 30°37' E 122°04'0 0.0
2014-Sep-12 01:18N 30°37' E 122°04'0 0.0
2014-Sep-11 18:04N 30°37' E 122°04'0 0.5
2014-Sep-11 17:33N 30°37' E 122°04'1010.4
2014-Sep-11 16:33N 30°34' E 122°15'6 5.9
2014-Sep-11 15:33N 30°33' E 122°22'1212.0
2014-Sep-11 14:33N 30°34' E 122°36'1515.2
2014-Sep-11 13:33N 30°35' E 122°54'1414.1
2014-Sep-11 12:33N 30°35' E 123°10'1514.3
2014-Sep-11 11:32N 30°41' E 123°26'1515.0
2014-Sep-11 10:33N 30°47' E 123°41'1616.1
2014-Sep-11 09:33N 30°57' E 123°56'1715.5
2014-Sep-11 08:27N 31°07' E 124°12'  

Dump ship's entire track history